sensor_id;sensor_type;location;lat;lon;timestamp;temperature;humidity
30825;DHT22;17550;45.486;12.222;2023-02-01T00:01:49;2.70;99.90
30825;DHT22;17550;45.486;12.222;2023-02-01T00:04:15;2.70;99.90
30825;DHT22;17550;45.486;12.222;2023-02-01T00:06:41;2.70;99.90
30825;DHT22;17550;45.486;12.222;2023-02-01T00:09:06;2.70;99.90
30825;DHT22;17550;45.486;12.222;2023-02-01T00:11:33;2.80;99.90
30825;DHT22;17550;45.486;12.222;2023-02-01T00:13:59;2.80;99.90
30825;DHT22;17550;45.486;12.222;2023-02-01T00:16:27;2.70;99.90
30825;DHT22;17550;45.486;12.222;2023-02-01T00:19:14;2.70;99.90
30825;DHT22;17550;45.486;12.222;2023-02-01T00:21:40;2.60;99.90
30825;DHT22;17550;45.486;12.222;2023-02-01T00:24:07;2.60;99.90
30825;DHT22;17550;45.486;12.222;2023-02-01T00:26:40;2.60;99.90
30825;DHT22;17550;45.486;12.222;2023-02-01T00:29:13;2.60;99.90
30825;DHT22;17550;45.486;12.222;2023-02-01T00:31:39;2.60;99.90
30825;DHT22;17550;45.486;12.222;2023-02-01T00:34:05;2.60;99.90
30825;DHT22;17550;45.486;12.222;2023-02-01T00:36:31;2.50;99.90
30825;DHT22;17550;45.486;12.222;2023-02-01T00:38:57;2.40;99.90
30825;DHT22;17550;45.486;12.222;2023-02-01T00:41:23;2.40;99.90
30825;DHT22;17550;45.486;12.222;2023-02-01T00:43:49;2.30;99.90
30825;DHT22;17550;45.486;12.222;2023-02-01T00:46:17;2.30;99.90
30825;DHT22;17550;45.486;12.222;2023-02-01T00:48:43;2.30;99.90
30825;DHT22;17550;45.486;12.222;2023-02-01T00:51:12;2.30;99.90
30825;DHT22;17550;45.486;12.222;2023-02-01T00:53:37;2.40;99.90
30825;DHT22;17550;45.486;12.222;2023-02-01T00:56:04;2.40;99.90
30825;DHT22;17550;45.486;12.222;2023-02-01T00:58:31;2.40;99.90
30825;DHT22;17550;45.486;12.222;2023-02-01T01:01:08;2.40;99.90
30825;DHT22;17550;45.486;12.222;2023-02-01T01:03:37;2.50;99.90
30825;DHT22;17550;45.486;12.222;2023-02-01T01:06:05;2.60;99.90
30825;DHT22;17550;45.486;12.222;2023-02-01T01:08:32;2.60;99.90
30825;DHT22;17550;45.486;12.222;2023-02-01T01:10:58;2.70;99.90
30825;DHT22;17550;45.486;12.222;2023-02-01T01:13:24;2.80;99.90
30825;DHT22;17550;45.486;12.222;2023-02-01T01:15:50;2.80;99.90
30825;DHT22;17550;45.486;12.222;2023-02-01T01:18:15;2.80;99.90
30825;DHT22;17550;45.486;12.222;2023-02-01T01:20:41;2.80;99.90
30825;DHT22;17550;45.486;12.222;2023-02-01T01:23:08;2.90;99.90
30825;DHT22;17550;45.486;12.222;2023-02-01T01:25:38;2.90;99.90
30825;DHT22;17550;45.486;12.222;2023-02-01T01:28:04;2.90;99.90
30825;DHT22;17550;45.486;12.222;2023-02-01T01:30:30;2.90;99.90
30825;DHT22;17550;45.486;12.222;2023-02-01T01:32:55;2.70;99.90
30825;DHT22;17550;45.486;12.222;2023-02-01T01:35:21;2.70;99.90
30825;DHT22;17550;45.486;12.222;2023-02-01T01:37:46;2.70;99.90
30825;DHT22;17550;45.486;12.222;2023-02-01T01:40:13;2.70;99.90
30825;DHT22;17550;45.486;12.222;2023-02-01T01:42:40;2.60;99.90
30825;DHT22;17550;45.486;12.222;2023-02-01T01:47:45;2.60;99.90
30825;DHT22;17550;45.486;12.222;2023-02-01T01:50:16;2.70;99.90
30825;DHT22;17550;45.486;12.222;2023-02-01T01:52:43;2.70;99.90
30825;DHT22;17550;45.486;12.222;2023-02-01T01:55:10;2.50;99.90
30825;DHT22;17550;45.486;12.222;2023-02-01T01:57:41;2.40;99.90
30825;DHT22;17550;45.486;12.222;2023-02-01T02:00:14;2.30;99.90
30825;DHT22;17550;45.486;12.222;2023-02-01T02:02:43;2.30;99.90
30825;DHT22;17550;45.486;12.222;2023-02-01T02:05:10;2.40;99.90
30825;DHT22;17550;45.486;12.222;2023-02-01T02:07:40;2.40;99.90
30825;DHT22;17550;45.486;12.222;2023-02-01T02:10:09;2.50;99.90
30825;DHT22;17550;45.486;12.222;2023-02-01T02:12:40;2.40;99.90
30825;DHT22;17550;45.486;12.222;2023-02-01T02:15:08;2.40;99.90
30825;DHT22;17550;45.486;12.222;2023-02-01T02:20:39;2.40;99.90
30825;DHT22;17550;45.486;12.222;2023-02-01T02:23:28;2.50;99.90
30825;DHT22;17550;45.486;12.222;2023-02-01T02:28:52;2.40;99.90
30825;DHT22;17550;45.486;12.222;2023-02-01T02:34:44;2.50;99.90
30825;DHT22;17550;45.486;12.222;2023-02-01T02:48:43;2.50;99.90
30825;DHT22;17550;45.486;12.222;2023-02-01T02:51:50;2.50;99.90
30825;DHT22;17550;45.486;12.222;2023-02-01T02:54:40;2.50;99.90
30825;DHT22;17550;45.486;12.222;2023-02-01T02:57:26;2.50;99.90
30825;DHT22;17550;45.486;12.222;2023-02-01T03:00:14;2.60;99.90
30825;DHT22;17550;45.486;12.222;2023-02-01T03:02:59;2.60;99.90
30825;DHT22;17550;45.486;12.222;2023-02-01T03:05:45;2.70;99.90
30825;DHT22;17550;45.486;12.222;2023-02-01T03:10:50;2.80;99.90
30825;DHT22;17550;45.486;12.222;2023-02-01T03:18:35;2.90;99.90
30825;DHT22;17550;45.486;12.222;2023-02-01T03:21:08;2.90;99.90
30825;DHT22;17550;45.486;12.222;2023-02-01T03:23:36;3.00;99.90
30825;DHT22;17550;45.486;12.222;2023-02-01T03:26:07;3.00;99.90
30825;DHT22;17550;45.486;12.222;2023-02-01T03:28:36;3.10;99.90
30825;DHT22;17550;45.486;12.222;2023-02-01T03:31:05;3.10;99.90
30825;DHT22;17550;45.486;12.222;2023-02-01T03:33:31;3.20;99.90
30825;DHT22;17550;45.486;12.222;2023-02-01T03:36:31;3.20;99.90
30825;DHT22;17550;45.486;12.222;2023-02-01T03:39:49;3.20;99.90
30825;DHT22;17550;45.486;12.222;2023-02-01T03:42:16;3.30;99.90
30825;DHT22;17550;45.486;12.222;2023-02-01T03:44:57;3.40;99.90
30825;DHT22;17550;45.486;12.222;2023-02-01T03:47:26;3.40;99.90
30825;DHT22;17550;45.486;12.222;2023-02-01T03:50:05;3.40;99.90
30825;DHT22;17550;45.486;12.222;2023-02-01T03:52:37;3.30;99.90
30825;DHT22;17550;45.486;12.222;2023-02-01T03:55:05;3.30;99.90
30825;DHT22;17550;45.486;12.222;2023-02-01T03:57:35;3.40;99.90
30825;DHT22;17550;45.486;12.222;2023-02-01T04:00:09;3.30;99.90
30825;DHT22;17550;45.486;12.222;2023-02-01T04:02:37;3.20;99.90
30825;DHT22;17550;45.486;12.222;2023-02-01T04:05:03;3.30;99.90
30825;DHT22;17550;45.486;12.222;2023-02-01T04:07:28;3.30;99.90
30825;DHT22;17550;45.486;12.222;2023-02-01T04:09:54;3.20;99.90
30825;DHT22;17550;45.486;12.222;2023-02-01T04:12:20;3.10;99.90
30825;DHT22;17550;45.486;12.222;2023-02-01T04:14:45;3.10;99.90
30825;DHT22;17550;45.486;12.222;2023-02-01T04:17:11;3.00;99.90
30825;DHT22;17550;45.486;12.222;2023-02-01T04:19:36;3.00;99.90
30825;DHT22;17550;45.486;12.222;2023-02-01T04:22:02;3.10;99.90
30825;DHT22;17550;45.486;12.222;2023-02-01T04:24:28;3.00;99.90
30825;DHT22;17550;45.486;12.222;2023-02-01T04:26:53;3.10;99.90
30825;DHT22;17550;45.486;12.222;2023-02-01T04:29:19;3.20;99.90
30825;DHT22;17550;45.486;12.222;2023-02-01T04:31:44;3.20;99.90
30825;DHT22;17550;45.486;12.222;2023-02-01T04:34:11;3.30;99.90
30825;DHT22;17550;45.486;12.222;2023-02-01T04:36:37;3.30;99.90
30825;DHT22;17550;45.486;12.222;2023-02-01T04:39:03;3.40;99.90
30825;DHT22;17550;45.486;12.222;2023-02-01T04:41:28;3.40;99.90
30825;DHT22;17550;45.486;12.222;2023-02-01T04:43:55;3.40;99.90
30825;DHT22;17550;45.486;12.222;2023-02-01T04:46:21;3.50;99.90
30825;DHT22;17550;45.486;12.222;2023-02-01T04:48:46;3.50;99.90
30825;DHT22;17550;45.486;12.222;2023-02-01T04:51:12;3.50;99.90
30825;DHT22;17550;45.486;12.222;2023-02-01T04:53:38;3.50;99.90
30825;DHT22;17550;45.486;12.222;2023-02-01T04:56:04;3.50;99.90
30825;DHT22;17550;45.486;12.222;2023-02-01T04:58:30;3.50;99.90
30825;DHT22;17550;45.486;12.222;2023-02-01T05:00:56;3.40;99.90
30825;DHT22;17550;45.486;12.222;2023-02-01T05:03:22;3.40;99.90
30825;DHT22;17550;45.486;12.222;2023-02-01T05:05:48;3.40;99.90
30825;DHT22;17550;45.486;12.222;2023-02-01T05:08:15;3.40;99.90
30825;DHT22;17550;45.486;12.222;2023-02-01T05:10:41;3.40;99.90
30825;DHT22;17550;45.486;12.222;2023-02-01T05:13:08;3.40;99.90
30825;DHT22;17550;45.486;12.222;2023-02-01T05:15:53;3.40;99.90
30825;DHT22;17550;45.486;12.222;2023-02-01T05:18:18;3.40;99.90
30825;DHT22;17550;45.486;12.222;2023-02-01T05:20:44;3.40;99.90
30825;DHT22;17550;45.486;12.222;2023-02-01T05:23:10;3.50;99.90
30825;DHT22;17550;45.486;12.222;2023-02-01T05:25:36;3.50;99.90
30825;DHT22;17550;45.486;12.222;2023-02-01T05:28:01;3.50;99.90
30825;DHT22;17550;45.486;12.222;2023-02-01T05:30:27;3.40;99.90
30825;DHT22;17550;45.486;12.222;2023-02-01T05:32:53;3.40;99.90
30825;DHT22;17550;45.486;12.222;2023-02-01T05:35:19;3.30;99.90
30825;DHT22;17550;45.486;12.222;2023-02-01T05:37:46;3.40;99.90
30825;DHT22;17550;45.486;12.222;2023-02-01T05:40:12;3.40;99.90
30825;DHT22;17550;45.486;12.222;2023-02-01T05:42:38;3.50;99.90
30825;DHT22;17550;45.486;12.222;2023-02-01T05:45:04;3.30;99.90
30825;DHT22;17550;45.486;12.222;2023-02-01T05:47:31;3.30;99.90
30825;DHT22;17550;45.486;12.222;2023-02-01T05:49:56;3.30;99.90
30825;DHT22;17550;45.486;12.222;2023-02-01T05:52:22;3.40;99.90
30825;DHT22;17550;45.486;12.222;2023-02-01T05:54:48;3.40;99.90
30825;DHT22;17550;45.486;12.222;2023-02-01T05:57:15;3.30;99.90
30825;DHT22;17550;45.486;12.222;2023-02-01T05:59:41;3.40;99.90
30825;DHT22;17550;45.486;12.222;2023-02-01T06:02:10;3.40;99.90
30825;DHT22;17550;45.486;12.222;2023-02-01T06:04:36;3.40;99.90
30825;DHT22;17550;45.486;12.222;2023-02-01T06:07:02;3.40;99.90
30825;DHT22;17550;45.486;12.222;2023-02-01T06:09:28;3.40;99.90
30825;DHT22;17550;45.486;12.222;2023-02-01T06:11:54;3.50;99.90
30825;DHT22;17550;45.486;12.222;2023-02-01T06:14:20;3.50;99.90
30825;DHT22;17550;45.486;12.222;2023-02-01T06:16:45;3.60;99.90
30825;DHT22;17550;45.486;12.222;2023-02-01T06:19:12;3.60;99.90
30825;DHT22;17550;45.486;12.222;2023-02-01T06:21:38;3.70;99.90
30825;DHT22;17550;45.486;12.222;2023-02-01T06:24:04;3.70;99.90
30825;DHT22;17550;45.486;12.222;2023-02-01T06:26:30;3.70;99.90
30825;DHT22;17550;45.486;12.222;2023-02-01T06:28:55;3.80;99.90
30825;DHT22;17550;45.486;12.222;2023-02-01T06:31:22;3.80;99.90
30825;DHT22;17550;45.486;12.222;2023-02-01T06:33:48;3.80;99.90
30825;DHT22;17550;45.486;12.222;2023-02-01T06:36:14;3.70;99.90
30825;DHT22;17550;45.486;12.222;2023-02-01T06:38:41;3.70;99.90
30825;DHT22;17550;45.486;12.222;2023-02-01T06:41:07;3.70;99.90
30825;DHT22;17550;45.486;12.222;2023-02-01T06:43:32;3.70;99.90
30825;DHT22;17550;45.486;12.222;2023-02-01T06:46:02;3.70;99.90
30825;DHT22;17550;45.486;12.222;2023-02-01T06:48:29;3.70;99.90
30825;DHT22;17550;45.486;12.222;2023-02-01T06:50:55;3.70;99.90
30825;DHT22;17550;45.486;12.222;2023-02-01T06:53:21;3.70;99.90
30825;DHT22;17550;45.486;12.222;2023-02-01T06:56:00;3.80;99.90
30825;DHT22;17550;45.486;12.222;2023-02-01T06:58:33;3.80;99.90
30825;DHT22;17550;45.486;12.222;2023-02-01T07:01:05;3.70;99.90
30825;DHT22;17550;45.486;12.222;2023-02-01T07:03:31;3.70;99.90
30825;DHT22;17550;45.486;12.222;2023-02-01T07:05:57;3.70;99.90
30825;DHT22;17550;45.486;12.222;2023-02-01T07:08:28;3.70;99.90
30825;DHT22;17550;45.486;12.222;2023-02-01T07:10:54;3.60;99.90
30825;DHT22;17550;45.486;12.222;2023-02-01T07:13:19;3.70;99.90
30825;DHT22;17550;45.486;12.222;2023-02-01T07:15:45;3.70;99.90
30825;DHT22;17550;45.486;12.222;2023-02-01T07:18:15;3.70;99.90
30825;DHT22;17550;45.486;12.222;2023-02-01T07:20:41;3.60;99.90
30825;DHT22;17550;45.486;12.222;2023-02-01T07:23:09;3.60;99.90
30825;DHT22;17550;45.486;12.222;2023-02-01T07:25:35;3.40;99.90
30825;DHT22;17550;45.486;12.222;2023-02-01T07:28:02;3.30;99.90
30825;DHT22;17550;45.486;12.222;2023-02-01T07:30:27;3.40;99.90
30825;DHT22;17550;45.486;12.222;2023-02-01T07:32:53;3.40;99.90
30825;DHT22;17550;45.486;12.222;2023-02-01T07:35:19;3.50;99.90
30825;DHT22;17550;45.486;12.222;2023-02-01T07:37:45;3.60;99.90
30825;DHT22;17550;45.486;12.222;2023-02-01T07:40:11;3.70;99.90
30825;DHT22;17550;45.486;12.222;2023-02-01T07:42:37;3.70;99.90
30825;DHT22;17550;45.486;12.222;2023-02-01T07:45:03;3.80;99.90
30825;DHT22;17550;45.486;12.222;2023-02-01T07:47:29;3.90;99.90
30825;DHT22;17550;45.486;12.222;2023-02-01T07:49:54;4.00;99.90
30825;DHT22;17550;45.486;12.222;2023-02-01T07:52:20;4.00;99.90
30825;DHT22;17550;45.486;12.222;2023-02-01T07:54:46;4.10;99.90
30825;DHT22;17550;45.486;12.222;2023-02-01T07:57:11;4.20;99.90
30825;DHT22;17550;45.486;12.222;2023-02-01T07:59:38;4.20;99.90
30825;DHT22;17550;45.486;12.222;2023-02-01T08:02:26;4.30;99.90
30825;DHT22;17550;45.486;12.222;2023-02-01T08:04:52;4.20;99.90
30825;DHT22;17550;45.486;12.222;2023-02-01T08:07:18;4.20;99.90
30825;DHT22;17550;45.486;12.222;2023-02-01T08:09:44;4.20;99.90
30825;DHT22;17550;45.486;12.222;2023-02-01T08:12:09;4.30;99.90
30825;DHT22;17550;45.486;12.222;2023-02-01T08:14:35;4.30;99.90
30825;DHT22;17550;45.486;12.222;2023-02-01T08:17:01;4.40;99.90
30825;DHT22;17550;45.486;12.222;2023-02-01T08:19:26;4.50;99.90
30825;DHT22;17550;45.486;12.222;2023-02-01T08:21:52;4.60;99.90
30825;DHT22;17550;45.486;12.222;2023-02-01T08:24:17;4.70;99.90
30825;DHT22;17550;45.486;12.222;2023-02-01T08:26:43;4.90;99.90
30825;DHT22;17550;45.486;12.222;2023-02-01T08:29:09;5.00;99.90
30825;DHT22;17550;45.486;12.222;2023-02-01T08:31:37;5.10;99.90
30825;DHT22;17550;45.486;12.222;2023-02-01T08:34:05;5.10;99.90
30825;DHT22;17550;45.486;12.222;2023-02-01T08:36:33;5.00;99.90
30825;DHT22;17550;45.486;12.222;2023-02-01T08:39:00;5.10;99.90
30825;DHT22;17550;45.486;12.222;2023-02-01T08:41:28;5.20;99.90
30825;DHT22;17550;45.486;12.222;2023-02-01T08:43:55;5.30;99.90
30825;DHT22;17550;45.486;12.222;2023-02-01T08:46:22;5.40;99.90
30825;DHT22;17550;45.486;12.222;2023-02-01T08:48:48;5.40;99.90
30825;DHT22;17550;45.486;12.222;2023-02-01T08:51:16;5.10;99.90
30825;DHT22;17550;45.486;12.222;2023-02-01T08:53:42;5.10;99.90
30825;DHT22;17550;45.486;12.222;2023-02-01T08:56:10;5.10;99.90
30825;DHT22;17550;45.486;12.222;2023-02-01T08:58:36;5.10;99.90
30825;DHT22;17550;45.486;12.222;2023-02-01T09:01:04;5.10;99.90
30825;DHT22;17550;45.486;12.222;2023-02-01T09:03:30;5.20;99.90
30825;DHT22;17550;45.486;12.222;2023-02-01T09:06:07;5.30;99.90
30825;DHT22;17550;45.486;12.222;2023-02-01T09:08:34;5.40;99.90
30825;DHT22;17550;45.486;12.222;2023-02-01T09:11:01;5.40;99.90
30825;DHT22;17550;45.486;12.222;2023-02-01T09:13:28;5.40;99.90
30825;DHT22;17550;45.486;12.222;2023-02-01T09:15:53;5.40;99.90
30825;DHT22;17550;45.486;12.222;2023-02-01T09:18:19;5.40;99.90
30825;DHT22;17550;45.486;12.222;2023-02-01T09:20:45;5.50;99.90
30825;DHT22;17550;45.486;12.222;2023-02-01T09:23:11;5.60;99.90
30825;DHT22;17550;45.486;12.222;2023-02-01T09:25:37;5.70;99.90
30825;DHT22;17550;45.486;12.222;2023-02-01T09:28:04;5.90;99.90
30825;DHT22;17550;45.486;12.222;2023-02-01T09:30:34;6.00;99.90
30825;DHT22;17550;45.486;12.222;2023-02-01T09:33:02;6.30;99.90
30825;DHT22;17550;45.486;12.222;2023-02-01T09:35:28;6.40;99.90
30825;DHT22;17550;45.486;12.222;2023-02-01T09:37:53;6.50;99.90
30825;DHT22;17550;45.486;12.222;2023-02-01T09:40:20;6.50;99.90
30825;DHT22;17550;45.486;12.222;2023-02-01T09:48:19;6.50;99.90
30825;DHT22;17550;45.486;12.222;2023-02-01T09:50:56;6.60;99.90
30825;DHT22;17550;45.486;12.222;2023-02-01T09:53:43;6.70;99.90
30825;DHT22;17550;45.486;12.222;2023-02-01T09:56:21;6.70;99.90
30825;DHT22;17550;45.486;12.222;2023-02-01T09:58:56;6.70;99.90
30825;DHT22;17550;45.486;12.222;2023-02-01T10:01:26;6.60;99.90
30825;DHT22;17550;45.486;12.222;2023-02-01T10:04:01;6.70;99.90
30825;DHT22;17550;45.486;12.222;2023-02-01T10:14:36;7.10;99.90
30825;DHT22;17550;45.486;12.222;2023-02-01T10:19:47;7.40;99.90
30825;DHT22;17550;45.486;12.222;2023-02-01T10:22:42;7.50;99.90
30825;DHT22;17550;45.486;12.222;2023-02-01T10:25:37;7.50;99.90
30825;DHT22;17550;45.486;12.222;2023-02-01T10:28:06;7.50;99.90
30825;DHT22;17550;45.486;12.222;2023-02-01T10:30:43;7.40;99.90
30825;DHT22;17550;45.486;12.222;2023-02-01T10:35:45;7.50;99.90
30825;DHT22;17550;45.486;12.222;2023-02-01T10:38:32;7.70;99.90
30825;DHT22;17550;45.486;12.222;2023-02-01T10:41:13;7.80;99.90
30825;DHT22;17550;45.486;12.222;2023-02-01T10:43:41;7.80;99.90
30825;DHT22;17550;45.486;12.222;2023-02-01T10:46:07;7.90;99.90
30825;DHT22;17550;45.486;12.222;2023-02-01T10:48:33;7.90;99.90
30825;DHT22;17550;45.486;12.222;2023-02-01T10:51:13;8.00;99.90
30825;DHT22;17550;45.486;12.222;2023-02-01T10:56:13;8.30;99.90
30825;DHT22;17550;45.486;12.222;2023-02-01T10:58:48;8.40;99.90
30825;DHT22;17550;45.486;12.222;2023-02-01T11:01:43;8.60;99.90
30825;DHT22;17550;45.486;12.222;2023-02-01T11:04:15;8.70;99.90
30825;DHT22;17550;45.486;12.222;2023-02-01T11:06:44;8.60;99.90
30825;DHT22;17550;45.486;12.222;2023-02-01T11:16:57;8.90;99.90
30825;DHT22;17550;45.486;12.222;2023-02-01T11:19:23;9.00;99.90
30825;DHT22;17550;45.486;12.222;2023-02-01T11:21:51;9.00;99.90
30825;DHT22;17550;45.486;12.222;2023-02-01T11:24:32;9.00;99.90
30825;DHT22;17550;45.486;12.222;2023-02-01T11:27:00;9.10;99.90
30825;DHT22;17550;45.486;12.222;2023-02-01T11:29:33;9.30;99.90
30825;DHT22;17550;45.486;12.222;2023-02-01T11:32:00;9.50;99.90
30825;DHT22;17550;45.486;12.222;2023-02-01T11:34:37;9.70;99.90
30825;DHT22;17550;45.486;12.222;2023-02-01T11:37:04;9.60;99.90
30825;DHT22;17550;45.486;12.222;2023-02-01T11:39:32;9.40;99.90
30825;DHT22;17550;45.486;12.222;2023-02-01T11:42:14;9.40;99.90
30825;DHT22;17550;45.486;12.222;2023-02-01T11:44:43;9.40;99.90
30825;DHT22;17550;45.486;12.222;2023-02-01T11:47:24;9.60;99.90
30825;DHT22;17550;45.486;12.222;2023-02-01T11:49:55;9.80;99.90
30825;DHT22;17550;45.486;12.222;2023-02-01T11:57:51;10.20;99.90
30825;DHT22;17550;45.486;12.222;2023-02-01T12:23:01;9.60;99.90
30825;DHT22;17550;45.486;12.222;2023-02-01T12:28:21;9.70;99.90
30825;DHT22;17550;45.486;12.222;2023-02-01T12:39:31;9.90;99.90
30825;DHT22;17550;45.486;12.222;2023-02-01T12:44:50;9.80;99.90
30825;DHT22;17550;45.486;12.222;2023-02-01T12:47:38;9.80;99.90
30825;DHT22;17550;45.486;12.222;2023-02-01T12:50:27;9.90;99.90
30825;DHT22;17550;45.486;12.222;2023-02-01T12:53:08;10.00;99.90
30825;DHT22;17550;45.486;12.222;2023-02-01T12:58:14;10.00;99.90
30825;DHT22;17550;45.486;12.222;2023-02-01T13:00:49;10.10;99.90
30825;DHT22;17550;45.486;12.222;2023-02-01T13:03:34;10.20;99.90
30825;DHT22;17550;45.486;12.222;2023-02-01T13:06:02;10.30;99.90
30825;DHT22;17550;45.486;12.222;2023-02-01T13:11:39;10.50;99.90
30825;DHT22;17550;45.486;12.222;2023-02-01T13:14:10;10.60;99.90
30825;DHT22;17550;45.486;12.222;2023-02-01T13:16:48;10.70;99.90
30825;DHT22;17550;45.486;12.222;2023-02-01T13:21:46;10.60;99.90
30825;DHT22;17550;45.486;12.222;2023-02-01T13:26:56;10.60;99.90
30825;DHT22;17550;45.486;12.222;2023-02-01T13:29:23;10.50;99.90
30825;DHT22;17550;45.486;12.222;2023-02-01T13:32:14;10.60;99.90
30825;DHT22;17550;45.486;12.222;2023-02-01T13:34:47;10.60;99.90
30825;DHT22;17550;45.486;12.222;2023-02-01T13:42:55;10.80;99.90
30825;DHT22;17550;45.486;12.222;2023-02-01T13:45:30;10.70;99.90
30825;DHT22;17550;45.486;12.222;2023-02-01T13:47:59;10.70;99.90
30825;DHT22;17550;45.486;12.222;2023-02-01T13:50:40;10.70;99.90
30825;DHT22;17550;45.486;12.222;2023-02-01T13:55:45;10.80;99.90
30825;DHT22;17550;45.486;12.222;2023-02-01T13:58:47;10.80;99.80
30825;DHT22;17550;45.486;12.222;2023-02-01T14:06:18;10.70;99.80
30825;DHT22;17550;45.486;12.222;2023-02-01T14:19:21;10.60;99.10
30825;DHT22;17550;45.486;12.222;2023-02-01T14:21:51;10.60;98.90
30825;DHT22;17550;45.486;12.222;2023-02-01T14:24:34;10.60;99.00
30825;DHT22;17550;45.486;12.222;2023-02-01T14:29:44;10.50;99.60
30825;DHT22;17550;45.486;12.222;2023-02-01T14:32:21;10.40;99.90
30825;DHT22;17550;45.486;12.222;2023-02-01T14:47:48;10.20;99.90
30825;DHT22;17550;45.486;12.222;2023-02-01T14:50:27;10.10;99.90
30825;DHT22;17550;45.486;12.222;2023-02-01T14:58:56;10.00;99.90
30825;DHT22;17550;45.486;12.222;2023-02-01T15:01:36;10.10;99.90
30825;DHT22;17550;45.486;12.222;2023-02-01T15:04:13;10.00;99.90
30825;DHT22;17550;45.486;12.222;2023-02-01T15:07:05;10.00;99.90
30825;DHT22;17550;45.486;12.222;2023-02-01T15:09:43;10.00;99.90
30825;DHT22;17550;45.486;12.222;2023-02-01T15:14:45;9.80;99.90
30825;DHT22;17550;45.486;12.222;2023-02-01T15:17:20;9.80;99.90
30825;DHT22;17550;45.486;12.222;2023-02-01T15:20:01;9.80;99.90
30825;DHT22;17550;45.486;12.222;2023-02-01T15:22:28;9.70;99.90
30825;DHT22;17550;45.486;12.222;2023-02-01T15:25:00;9.70;99.90
30825;DHT22;17550;45.486;12.222;2023-02-01T15:27:30;9.60;99.90
30825;DHT22;17550;45.486;12.222;2023-02-01T15:30:07;9.60;99.90
30825;DHT22;17550;45.486;12.222;2023-02-01T15:32:38;9.50;99.90
30825;DHT22;17550;45.486;12.222;2023-02-01T15:35:05;9.50;99.90
30825;DHT22;17550;45.486;12.222;2023-02-01T15:37:31;9.40;99.90
30825;DHT22;17550;45.486;12.222;2023-02-01T15:45:18;9.20;99.90
30825;DHT22;17550;45.486;12.222;2023-02-01T15:47:47;9.20;99.90
30825;DHT22;17550;45.486;12.222;2023-02-01T15:50:19;9.10;99.90
30825;DHT22;17550;45.486;12.222;2023-02-01T15:52:48;9.00;99.90
30825;DHT22;17550;45.486;12.222;2023-02-01T15:55:36;9.00;99.90
30825;DHT22;17550;45.486;12.222;2023-02-01T15:58:19;8.90;99.90
30825;DHT22;17550;45.486;12.222;2023-02-01T16:01:10;8.80;99.90
30825;DHT22;17550;45.486;12.222;2023-02-01T16:03:39;8.70;99.90
30825;DHT22;17550;45.486;12.222;2023-02-01T16:06:11;8.60;99.90
30825;DHT22;17550;45.486;12.222;2023-02-01T16:08:37;8.50;99.90
30825;DHT22;17550;45.486;12.222;2023-02-01T16:13:35;8.40;99.90
30825;DHT22;17550;45.486;12.222;2023-02-01T16:16:01;8.30;99.90
30825;DHT22;17550;45.486;12.222;2023-02-01T16:18:27;8.20;99.90
30825;DHT22;17550;45.486;12.222;2023-02-01T16:20:53;8.20;99.90
30825;DHT22;17550;45.486;12.222;2023-02-01T16:23:18;8.10;99.90
30825;DHT22;17550;45.486;12.222;2023-02-01T16:25:46;8.00;99.90
30825;DHT22;17550;45.486;12.222;2023-02-01T16:28:15;8.00;99.90
30825;DHT22;17550;45.486;12.222;2023-02-01T16:30:40;7.90;99.90
30825;DHT22;17550;45.486;12.222;2023-02-01T16:33:10;7.80;99.90
30825;DHT22;17550;45.486;12.222;2023-02-01T16:35:37;7.70;99.90
30825;DHT22;17550;45.486;12.222;2023-02-01T16:38:05;7.70;99.90
30825;DHT22;17550;45.486;12.222;2023-02-01T16:40:41;7.60;99.90
30825;DHT22;17550;45.486;12.222;2023-02-01T16:45:39;7.40;99.90
30825;DHT22;17550;45.486;12.222;2023-02-01T16:48:05;7.30;99.90
30825;DHT22;17550;45.486;12.222;2023-02-01T16:50:32;7.30;99.90
30825;DHT22;17550;45.486;12.222;2023-02-01T16:52:59;7.30;99.90
30825;DHT22;17550;45.486;12.222;2023-02-01T16:55:26;7.30;99.90
30825;DHT22;17550;45.486;12.222;2023-02-01T16:57:53;7.30;99.90
30825;DHT22;17550;45.486;12.222;2023-02-01T17:00:19;7.20;99.90
30825;DHT22;17550;45.486;12.222;2023-02-01T17:02:45;7.10;99.90
30825;DHT22;17550;45.486;12.222;2023-02-01T17:05:11;7.10;99.90
30825;DHT22;17550;45.486;12.222;2023-02-01T17:07:38;7.00;99.90
30825;DHT22;17550;45.486;12.222;2023-02-01T17:10:06;6.90;99.90
30825;DHT22;17550;45.486;12.222;2023-02-01T17:12:32;6.90;99.90
30825;DHT22;17550;45.486;12.222;2023-02-01T17:14:59;6.90;99.90
30825;DHT22;17550;45.486;12.222;2023-02-01T17:17:33;6.80;99.90
30825;DHT22;17550;45.486;12.222;2023-02-01T17:20:00;6.70;99.90
30825;DHT22;17550;45.486;12.222;2023-02-01T17:22:26;6.70;99.90
30825;DHT22;17550;45.486;12.222;2023-02-01T17:24:52;6.70;99.90
30825;DHT22;17550;45.486;12.222;2023-02-01T17:27:18;6.60;99.90
30825;DHT22;17550;45.486;12.222;2023-02-01T17:29:44;6.60;99.90
30825;DHT22;17550;45.486;12.222;2023-02-01T17:32:19;6.60;99.90
30825;DHT22;17550;45.486;12.222;2023-02-01T17:34:46;6.60;99.90
30825;DHT22;17550;45.486;12.222;2023-02-01T17:37:32;6.60;99.90
30825;DHT22;17550;45.486;12.222;2023-02-01T17:39:59;6.60;99.90
30825;DHT22;17550;45.486;12.222;2023-02-01T17:42:26;6.60;99.90
30825;DHT22;17550;45.486;12.222;2023-02-01T17:44:59;6.60;99.90
30825;DHT22;17550;45.486;12.222;2023-02-01T17:47:25;6.60;99.90
30825;DHT22;17550;45.486;12.222;2023-02-01T17:49:51;6.60;99.90
30825;DHT22;17550;45.486;12.222;2023-02-01T17:52:23;6.50;99.90
30825;DHT22;17550;45.486;12.222;2023-02-01T17:54:49;6.50;99.90
30825;DHT22;17550;45.486;12.222;2023-02-01T17:57:18;6.50;99.90
30825;DHT22;17550;45.486;12.222;2023-02-01T17:59:45;6.40;99.90
30825;DHT22;17550;45.486;12.222;2023-02-01T18:02:21;6.50;99.90
30825;DHT22;17550;45.486;12.222;2023-02-01T18:04:47;6.40;99.90
30825;DHT22;17550;45.486;12.222;2023-02-01T18:07:14;6.40;99.90
30825;DHT22;17550;45.486;12.222;2023-02-01T18:09:40;6.30;99.90
30825;DHT22;17550;45.486;12.222;2023-02-01T18:12:06;6.20;99.90
30825;DHT22;17550;45.486;12.222;2023-02-01T18:14:38;6.20;99.90
30825;DHT22;17550;45.486;12.222;2023-02-01T18:17:03;6.20;99.90
30825;DHT22;17550;45.486;12.222;2023-02-01T18:19:29;6.10;99.90
30825;DHT22;17550;45.486;12.222;2023-02-01T18:21:54;6.20;99.90
30825;DHT22;17550;45.486;12.222;2023-02-01T18:24:22;6.10;99.90
30825;DHT22;17550;45.486;12.222;2023-02-01T18:26:48;6.10;99.90
30825;DHT22;17550;45.486;12.222;2023-02-01T18:29:14;6.10;99.90
30825;DHT22;17550;45.486;12.222;2023-02-01T18:31:46;6.00;99.90
30825;DHT22;17550;45.486;12.222;2023-02-01T18:34:14;6.00;99.90
30825;DHT22;17550;45.486;12.222;2023-02-01T18:36:47;5.90;99.90
30825;DHT22;17550;45.486;12.222;2023-02-01T18:39:15;5.90;99.90